sensor_id;sensor_type;location;lat;lon;timestamp;P1;durP1;ratioP1;P2;durP2;ratioP2
16450;SDS011;12243;42.708;23.310;2022-12-29T00:00:52;16.97;;;13.70;;
16450;SDS011;12243;42.708;23.310;2022-12-29T00:03:19;15.40;;;13.67;;
16450;SDS011;12243;42.708;23.310;2022-12-29T00:05:54;16.47;;;14.03;;
16450;SDS011;12243;42.708;23.310;2022-12-29T00:08:22;21.03;;;15.07;;
16450;SDS011;12243;42.708;23.310;2022-12-29T00:11:04;17.67;;;14.40;;
16450;SDS011;12243;42.708;23.310;2022-12-29T00:13:31;19.77;;;15.23;;
16450;SDS011;12243;42.708;23.310;2022-12-29T00:16:16;20.17;;;15.50;;
16450;SDS011;12243;42.708;23.310;2022-12-29T00:18:42;20.77;;;15.13;;
16450;SDS011;12243;42.708;23.310;2022-12-29T00:21:11;17.63;;;14.93;;
16450;SDS011;12243;42.708;23.310;2022-12-29T00:23:57;18.37;;;14.27;;
16450;SDS011;12243;42.708;23.310;2022-12-29T00:26:47;18.70;;;14.60;;
16450;SDS011;12243;42.708;23.310;2022-12-29T00:29:31;22.57;;;14.87;;
16450;SDS011;12243;42.708;23.310;2022-12-29T00:32:16;22.50;;;15.00;;
16450;SDS011;12243;42.708;23.310;2022-12-29T00:35:00;21.60;;;15.33;;
16450;SDS011;12243;42.708;23.310;2022-12-29T00:37:39;22.37;;;16.87;;
16450;SDS011;12243;42.708;23.310;2022-12-29T00:40:26;24.47;;;15.80;;
16450;SDS011;12243;42.708;23.310;2022-12-29T00:43:10;23.30;;;16.73;;
16450;SDS011;12243;42.708;23.310;2022-12-29T00:45:54;22.93;;;17.60;;
16450;SDS011;12243;42.708;23.310;2022-12-29T00:48:21;21.67;;;16.43;;
16450;SDS011;12243;42.708;23.310;2022-12-29T00:51:02;24.47;;;17.40;;
16450;SDS011;12243;42.708;23.310;2022-12-29T00:53:30;23.27;;;17.93;;
16450;SDS011;12243;42.708;23.310;2022-12-29T00:55:57;25.63;;;19.33;;
16450;SDS011;12243;42.708;23.310;2022-12-29T00:58:26;26.40;;;17.23;;
16450;SDS011;12243;42.708;23.310;2022-12-29T01:01:00;22.30;;;18.27;;
16450;SDS011;12243;42.708;23.310;2022-12-29T01:03:27;21.77;;;16.60;;
16450;SDS011;12243;42.708;23.310;2022-12-29T01:05:54;21.20;;;16.40;;
16450;SDS011;12243;42.708;23.310;2022-12-29T01:08:21;22.47;;;16.77;;
16450;SDS011;12243;42.708;23.310;2022-12-29T01:10:58;20.50;;;15.70;;
16450;SDS011;12243;42.708;23.310;2022-12-29T01:13:26;19.90;;;15.67;;
16450;SDS011;12243;42.708;23.310;2022-12-29T01:15:53;20.93;;;15.87;;
16450;SDS011;12243;42.708;23.310;2022-12-29T01:18:20;19.20;;;14.90;;
16450;SDS011;12243;42.708;23.310;2022-12-29T01:20:48;18.27;;;14.80;;
16450;SDS011;12243;42.708;23.310;2022-12-29T01:23:15;21.03;;;15.07;;
16450;SDS011;12243;42.708;23.310;2022-12-29T01:25:44;17.40;;;14.30;;
16450;SDS011;12243;42.708;23.310;2022-12-29T01:28:12;18.63;;;14.13;;
16450;SDS011;12243;42.708;23.310;2022-12-29T01:30:39;17.53;;;14.07;;
16450;SDS011;12243;42.708;23.310;2022-12-29T01:33:06;17.17;;;14.30;;
16450;SDS011;12243;42.708;23.310;2022-12-29T01:35:32;19.33;;;14.37;;
16450;SDS011;12243;42.708;23.310;2022-12-29T01:37:59;18.03;;;14.73;;
16450;SDS011;12243;42.708;23.310;2022-12-29T01:40:26;20.70;;;14.57;;
16450;SDS011;12243;42.708;23.310;2022-12-29T01:42:53;16.90;;;14.17;;
16450;SDS011;12243;42.708;23.310;2022-12-29T01:45:21;18.23;;;14.37;;
16450;SDS011;12243;42.708;23.310;2022-12-29T01:47:49;15.83;;;12.87;;
16450;SDS011;12243;42.708;23.310;2022-12-29T01:50:19;18.63;;;14.60;;
16450;SDS011;12243;42.708;23.310;2022-12-29T01:52:53;18.53;;;14.23;;
16450;SDS011;12243;42.708;23.310;2022-12-29T01:55:25;16.83;;;14.00;;
16450;SDS011;12243;42.708;23.310;2022-12-29T01:57:53;18.53;;;13.93;;
16450;SDS011;12243;42.708;23.310;2022-12-29T02:00:26;19.87;;;15.20;;
16450;SDS011;12243;42.708;23.310;2022-12-29T02:02:53;18.03;;;14.67;;
16450;SDS011;12243;42.708;23.310;2022-12-29T02:05:23;19.33;;;15.47;;
16450;SDS011;12243;42.708;23.310;2022-12-29T02:08:11;18.73;;;14.63;;
16450;SDS011;12243;42.708;23.310;2022-12-29T02:10:39;18.20;;;14.77;;
16450;SDS011;12243;42.708;23.310;2022-12-29T02:13:08;18.43;;;14.80;;
16450;SDS011;12243;42.708;23.310;2022-12-29T02:15:40;17.97;;;14.37;;
16450;SDS011;12243;42.708;23.310;2022-12-29T02:18:20;18.63;;;14.27;;
16450;SDS011;12243;42.708;23.310;2022-12-29T02:30:07;17.07;;;13.57;;
16450;SDS011;12243;42.708;23.310;2022-12-29T02:32:51;16.77;;;13.10;;
16450;SDS011;12243;42.708;23.310;2022-12-29T02:35:29;19.10;;;13.73;;
16450;SDS011;12243;42.708;23.310;2022-12-29T02:38:03;17.80;;;14.27;;
16450;SDS011;12243;42.708;23.310;2022-12-29T02:40:40;16.77;;;13.03;;
16450;SDS011;12243;42.708;23.310;2022-12-29T02:43:14;16.47;;;13.37;;
16450;SDS011;12243;42.708;23.310;2022-12-29T02:45:51;21.63;;;14.30;;
16450;SDS011;12243;42.708;23.310;2022-12-29T02:48:24;16.63;;;13.93;;
16450;SDS011;12243;42.708;23.310;2022-12-29T02:50:58;19.03;;;13.43;;
16450;SDS011;12243;42.708;23.310;2022-12-29T02:53:28;18.50;;;14.20;;
16450;SDS011;12243;42.708;23.310;2022-12-29T02:56:15;18.80;;;14.40;;
16450;SDS011;12243;42.708;23.310;2022-12-29T02:58:43;16.40;;;14.23;;
16450;SDS011;12243;42.708;23.310;2022-12-29T03:01:15;19.13;;;14.73;;
16450;SDS011;12243;42.708;23.310;2022-12-29T03:03:55;16.33;;;14.30;;
16450;SDS011;12243;42.708;23.310;2022-12-29T03:06:39;18.03;;;14.07;;
16450;SDS011;12243;42.708;23.310;2022-12-29T03:09:19;18.93;;;14.17;;
16450;SDS011;12243;42.708;23.310;2022-12-29T03:11:53;17.50;;;14.67;;
16450;SDS011;12243;42.708;23.310;2022-12-29T03:14:37;19.97;;;14.63;;
16450;SDS011;12243;42.708;23.310;2022-12-29T03:17:28;21.30;;;15.40;;
16450;SDS011;12243;42.708;23.310;2022-12-29T03:20:04;17.77;;;14.07;;
16450;SDS011;12243;42.708;23.310;2022-12-29T03:22:36;17.77;;;14.30;;
16450;SDS011;12243;42.708;23.310;2022-12-29T03:25:12;18.83;;;15.23;;
16450;SDS011;12243;42.708;23.310;2022-12-29T03:27:42;18.93;;;14.30;;
16450;SDS011;12243;42.708;23.310;2022-12-29T03:30:12;19.50;;;14.53;;
16450;SDS011;12243;42.708;23.310;2022-12-29T03:32:42;18.57;;;14.43;;
16450;SDS011;12243;42.708;23.310;2022-12-29T03:35:14;17.00;;;14.17;;
16450;SDS011;12243;42.708;23.310;2022-12-29T03:37:44;22.47;;;15.17;;
16450;SDS011;12243;42.708;23.310;2022-12-29T03:40:19;18.03;;;14.63;;
16450;SDS011;12243;42.708;23.310;2022-12-29T03:42:50;16.70;;;13.90;;
16450;SDS011;12243;42.708;23.310;2022-12-29T03:45:18;18.57;;;15.17;;
16450;SDS011;12243;42.708;23.310;2022-12-29T03:47:46;22.60;;;16.07;;
16450;SDS011;12243;42.708;23.310;2022-12-29T03:50:16;18.20;;;13.97;;
16450;SDS011;12243;42.708;23.310;2022-12-29T03:52:43;20.30;;;15.47;;
16450;SDS011;12243;42.708;23.310;2022-12-29T03:55:10;21.47;;;15.10;;
16450;SDS011;12243;42.708;23.310;2022-12-29T03:57:38;21.80;;;14.73;;
16450;SDS011;12243;42.708;23.310;2022-12-29T04:00:08;20.87;;;15.00;;
16450;SDS011;12243;42.708;23.310;2022-12-29T04:02:44;20.80;;;16.00;;
16450;SDS011;12243;42.708;23.310;2022-12-29T04:05:18;30.47;;;21.17;;
16450;SDS011;12243;42.708;23.310;2022-12-29T04:07:47;42.03;;;30.23;;
16450;SDS011;12243;42.708;23.310;2022-12-29T04:10:14;72.87;;;47.90;;
16450;SDS011;12243;42.708;23.310;2022-12-29T04:12:46;76.73;;;53.17;;
16450;SDS011;12243;42.708;23.310;2022-12-29T04:15:13;59.67;;;42.23;;
16450;SDS011;12243;42.708;23.310;2022-12-29T04:17:40;42.50;;;26.70;;
16450;SDS011;12243;42.708;23.310;2022-12-29T04:20:08;32.80;;;23.60;;
16450;SDS011;12243;42.708;23.310;2022-12-29T04:23:00;35.83;;;26.57;;
16450;SDS011;12243;42.708;23.310;2022-12-29T04:25:27;33.67;;;25.27;;
16450;SDS011;12243;42.708;23.310;2022-12-29T04:27:56;29.60;;;22.10;;
16450;SDS011;12243;42.708;23.310;2022-12-29T04:30:50;35.50;;;24.63;;
16450;SDS011;12243;42.708;23.310;2022-12-29T04:33:27;29.57;;;21.70;;
16450;SDS011;12243;42.708;23.310;2022-12-29T04:35:54;43.80;;;34.97;;
16450;SDS011;12243;42.708;23.310;2022-12-29T04:38:24;46.03;;;32.63;;
16450;SDS011;12243;42.708;23.310;2022-12-29T04:40:53;38.60;;;28.33;;
16450;SDS011;12243;42.708;23.310;2022-12-29T04:43:22;41.73;;;32.37;;
16450;SDS011;12243;42.708;23.310;2022-12-29T04:46:09;34.03;;;24.77;;
16450;SDS011;12243;42.708;23.310;2022-12-29T04:48:56;35.90;;;23.70;;
16450;SDS011;12243;42.708;23.310;2022-12-29T04:51:44;32.40;;;23.83;;
16450;SDS011;12243;42.708;23.310;2022-12-29T04:54:14;30.40;;;23.27;;
16450;SDS011;12243;42.708;23.310;2022-12-29T04:56:44;34.53;;;25.40;;
16450;SDS011;12243;42.708;23.310;2022-12-29T04:59:14;30.73;;;22.93;;
16450;SDS011;12243;42.708;23.310;2022-12-29T05:01:43;28.63;;;22.07;;
16450;SDS011;12243;42.708;23.310;2022-12-29T05:04:10;28.60;;;20.33;;
16450;SDS011;12243;42.708;23.310;2022-12-29T05:06:37;31.13;;;22.03;;
16450;SDS011;12243;42.708;23.310;2022-12-29T05:09:04;36.63;;;24.27;;
16450;SDS011;12243;42.708;23.310;2022-12-29T05:11:34;48.37;;;28.70;;
16450;SDS011;12243;42.708;23.310;2022-12-29T05:14:01;40.33;;;24.93;;
16450;SDS011;12243;42.708;23.310;2022-12-29T05:16:28;30.70;;;21.53;;
16450;SDS011;12243;42.708;23.310;2022-12-29T05:18:56;33.93;;;20.53;;
16450;SDS011;12243;42.708;23.310;2022-12-29T05:21:23;30.23;;;21.40;;
16450;SDS011;12243;42.708;23.310;2022-12-29T05:23:50;31.73;;;21.67;;
16450;SDS011;12243;42.708;23.310;2022-12-29T05:26:17;26.87;;;19.27;;
16450;SDS011;12243;42.708;23.310;2022-12-29T05:28:54;24.90;;;18.17;;
16450;SDS011;12243;42.708;23.310;2022-12-29T05:31:21;26.43;;;17.73;;
16450;SDS011;12243;42.708;23.310;2022-12-29T05:33:48;25.67;;;18.00;;
16450;SDS011;12243;42.708;23.310;2022-12-29T05:36:16;27.37;;;18.60;;
16450;SDS011;12243;42.708;23.310;2022-12-29T05:38:48;28.47;;;20.10;;
16450;SDS011;12243;42.708;23.310;2022-12-29T05:41:16;27.33;;;18.63;;
16450;SDS011;12243;42.708;23.310;2022-12-29T05:44:11;55.83;;;29.93;;
16450;SDS011;12243;42.708;23.310;2022-12-29T05:47:07;34.73;;;25.00;;
16450;SDS011;12243;42.708;23.310;2022-12-29T05:49:50;95.07;;;46.73;;
16450;SDS011;12243;42.708;23.310;2022-12-29T05:52:29;31.80;;;22.07;;
16450;SDS011;12243;42.708;23.310;2022-12-29T05:54:56;31.93;;;20.50;;
16450;SDS011;12243;42.708;23.310;2022-12-29T05:57:24;25.33;;;16.80;;
16450;SDS011;12243;42.708;23.310;2022-12-29T06:00:08;37.50;;;23.93;;
16450;SDS011;12243;42.708;23.310;2022-12-29T06:02:43;87.43;;;41.10;;
16450;SDS011;12243;42.708;23.310;2022-12-29T06:05:10;48.00;;;26.33;;
16450;SDS011;12243;42.708;23.310;2022-12-29T06:07:38;20.43;;;15.07;;
16450;SDS011;12243;42.708;23.310;2022-12-29T06:10:07;16.27;;;13.43;;
16450;SDS011;12243;42.708;23.310;2022-12-29T06:13:00;19.50;;;14.73;;
16450;SDS011;12243;42.708;23.310;2022-12-29T06:15:31;18.20;;;13.67;;
16450;SDS011;12243;42.708;23.310;2022-12-29T06:17:58;14.20;;;12.43;;
16450;SDS011;12243;42.708;23.310;2022-12-29T06:20:25;15.17;;;12.93;;
16450;SDS011;12243;42.708;23.310;2022-12-29T06:22:53;15.97;;;13.00;;
16450;SDS011;12243;42.708;23.310;2022-12-29T06:25:21;18.73;;;13.57;;
16450;SDS011;12243;42.708;23.310;2022-12-29T06:27:48;16.47;;;13.17;;
16450;SDS011;12243;42.708;23.310;2022-12-29T06:30:15;17.13;;;14.13;;
16450;SDS011;12243;42.708;23.310;2022-12-29T06:32:45;17.27;;;14.60;;
16450;SDS011;12243;42.708;23.310;2022-12-29T06:35:12;21.17;;;16.60;;
16450;SDS011;12243;42.708;23.310;2022-12-29T06:37:49;19.13;;;15.67;;
16450;SDS011;12243;42.708;23.310;2022-12-29T06:40:15;20.77;;;15.07;;
16450;SDS011;12243;42.708;23.310;2022-12-29T06:43:03;21.13;;;14.80;;
16450;SDS011;12243;42.708;23.310;2022-12-29T06:45:56;20.43;;;15.10;;
16450;SDS011;12243;42.708;23.310;2022-12-29T06:48:25;20.20;;;15.07;;
16450;SDS011;12243;42.708;23.310;2022-12-29T06:50:52;50.57;;;32.67;;
16450;SDS011;12243;42.708;23.310;2022-12-29T06:53:18;30.30;;;21.80;;
16450;SDS011;12243;42.708;23.310;2022-12-29T06:55:45;29.07;;;19.87;;
16450;SDS011;12243;42.708;23.310;2022-12-29T06:58:12;25.93;;;19.13;;
16450;SDS011;12243;42.708;23.310;2022-12-29T07:00:39;23.93;;;16.93;;
16450;SDS011;12243;42.708;23.310;2022-12-29T07:03:06;25.17;;;17.70;;
16450;SDS011;12243;42.708;23.310;2022-12-29T07:05:34;29.83;;;20.70;;
16450;SDS011;12243;42.708;23.310;2022-12-29T07:08:01;27.50;;;19.53;;
16450;SDS011;12243;42.708;23.310;2022-12-29T07:10:28;30.27;;;18.87;;
16450;SDS011;12243;42.708;23.310;2022-12-29T07:12:55;24.33;;;17.03;;
16450;SDS011;12243;42.708;23.310;2022-12-29T07:15:21;21.33;;;17.00;;
16450;SDS011;12243;42.708;23.310;2022-12-29T07:17:48;24.53;;;17.37;;
16450;SDS011;12243;42.708;23.310;2022-12-29T07:20:15;21.97;;;16.50;;
16450;SDS011;12243;42.708;23.310;2022-12-29T07:22:44;22.80;;;15.43;;
16450;SDS011;12243;42.708;23.310;2022-12-29T07:25:13;22.57;;;15.53;;
16450;SDS011;12243;42.708;23.310;2022-12-29T07:27:40;23.70;;;16.83;;
16450;SDS011;12243;42.708;23.310;2022-12-29T07:30:08;36.83;;;21.80;;
16450;SDS011;12243;42.708;23.310;2022-12-29T07:32:35;24.27;;;16.43;;
16450;SDS011;12243;42.708;23.310;2022-12-29T07:35:02;26.93;;;17.73;;
16450;SDS011;12243;42.708;23.310;2022-12-29T07:37:29;24.30;;;17.50;;
16450;SDS011;12243;42.708;23.310;2022-12-29T07:39:57;25.27;;;17.33;;
16450;SDS011;12243;42.708;23.310;2022-12-29T07:42:24;24.13;;;16.00;;
16450;SDS011;12243;42.708;23.310;2022-12-29T07:44:51;23.27;;;15.80;;
16450;SDS011;12243;42.708;23.310;2022-12-29T07:47:25;25.17;;;18.00;;
16450;SDS011;12243;42.708;23.310;2022-12-29T07:49:52;22.67;;;15.20;;
16450;SDS011;12243;42.708;23.310;2022-12-29T07:52:19;22.20;;;16.00;;
16450;SDS011;12243;42.708;23.310;2022-12-29T07:54:46;26.97;;;17.90;;
16450;SDS011;12243;42.708;23.310;2022-12-29T07:57:14;24.67;;;16.33;;
16450;SDS011;12243;42.708;23.310;2022-12-29T07:59:41;38.77;;;22.87;;
16450;SDS011;12243;42.708;23.310;2022-12-29T08:02:09;23.67;;;15.37;;
16450;SDS011;12243;42.708;23.310;2022-12-29T08:04:36;23.33;;;16.23;;
16450;SDS011;12243;42.708;23.310;2022-12-29T08:07:03;23.53;;;17.17;;
16450;SDS011;12243;42.708;23.310;2022-12-29T08:09:30;23.87;;;16.80;;
16450;SDS011;12243;42.708;23.310;2022-12-29T08:11:56;21.80;;;16.90;;
16450;SDS011;12243;42.708;23.310;2022-12-29T08:14:25;26.40;;;17.30;;
16450;SDS011;12243;42.708;23.310;2022-12-29T08:16:51;24.60;;;17.67;;
16450;SDS011;12243;42.708;23.310;2022-12-29T08:19:18;25.47;;;15.87;;
16450;SDS011;12243;42.708;23.310;2022-12-29T08:21:45;20.90;;;17.00;;
16450;SDS011;12243;42.708;23.310;2022-12-29T08:24:12;23.37;;;17.90;;
16450;SDS011;12243;42.708;23.310;2022-12-29T08:26:39;23.53;;;17.13;;
16450;SDS011;12243;42.708;23.310;2022-12-29T08:29:05;27.47;;;17.60;;
16450;SDS011;12243;42.708;23.310;2022-12-29T08:31:34;23.70;;;17.70;;
16450;SDS011;12243;42.708;23.310;2022-12-29T08:34:00;24.40;;;18.10;;
16450;SDS011;12243;42.708;23.310;2022-12-29T08:36:28;26.00;;;18.23;;
16450;SDS011;12243;42.708;23.310;2022-12-29T08:38:55;23.50;;;17.17;;
16450;SDS011;12243;42.708;23.310;2022-12-29T08:41:23;23.00;;;16.87;;
16450;SDS011;12243;42.708;23.310;2022-12-29T08:43:50;25.37;;;18.17;;
16450;SDS011;12243;42.708;23.310;2022-12-29T08:46:17;22.50;;;17.40;;
16450;SDS011;12243;42.708;23.310;2022-12-29T08:48:45;23.47;;;18.30;;
16450;SDS011;12243;42.708;23.310;2022-12-29T08:51:12;26.80;;;18.63;;
16450;SDS011;12243;42.708;23.310;2022-12-29T08:53:39;25.47;;;18.63;;
16450;SDS011;12243;42.708;23.310;2022-12-29T08:56:08;27.30;;;17.80;;
16450;SDS011;12243;42.708;23.310;2022-12-29T08:58:44;22.70;;;18.57;;
16450;SDS011;12243;42.708;23.310;2022-12-29T09:01:11;22.70;;;18.47;;
16450;SDS011;12243;42.708;23.310;2022-12-29T09:03:38;23.33;;;18.20;;
16450;SDS011;12243;42.708;23.310;2022-12-29T09:06:07;23.97;;;17.57;;
16450;SDS011;12243;42.708;23.310;2022-12-29T09:08:33;21.77;;;18.73;;
16450;SDS011;12243;42.708;23.310;2022-12-29T09:11:07;38.63;;;24.93;;
16450;SDS011;12243;42.708;23.310;2022-12-29T09:13:34;78.67;;;40.50;;
16450;SDS011;12243;42.708;23.310;2022-12-29T09:16:01;25.10;;;20.60;;
16450;SDS011;12243;42.708;23.310;2022-12-29T09:18:28;27.03;;;20.00;;
16450;SDS011;12243;42.708;23.310;2022-12-29T09:20:56;37.53;;;26.40;;
16450;SDS011;12243;42.708;23.310;2022-12-29T09:23:25;33.07;;;22.83;;
16450;SDS011;12243;42.708;23.310;2022-12-29T09:25:53;32.00;;;19.70;;
16450;SDS011;12243;42.708;23.310;2022-12-29T09:28:20;22.87;;;19.17;;
16450;SDS011;12243;42.708;23.310;2022-12-29T09:30:47;27.23;;;20.43;;
16450;SDS011;12243;42.708;23.310;2022-12-29T09:33:14;25.20;;;20.13;;
16450;SDS011;12243;42.708;23.310;2022-12-29T09:35:42;40.70;;;26.47;;
16450;SDS011;12243;42.708;23.310;2022-12-29T09:38:09;40.07;;;27.13;;
16450;SDS011;12243;42.708;23.310;2022-12-29T09:40:38;46.93;;;29.03;;
16450;SDS011;12243;42.708;23.310;2022-12-29T09:43:16;26.97;;;20.43;;
16450;SDS011;12243;42.708;23.310;2022-12-29T09:45:52;26.33;;;19.60;;
16450;SDS011;12243;42.708;23.310;2022-12-29T09:48:25;27.97;;;19.93;;
16450;SDS011;12243;42.708;23.310;2022-12-29T09:50:57;25.07;;;19.37;;
16450;SDS011;12243;42.708;23.310;2022-12-29T09:53:29;20.43;;;17.13;;
16450;SDS011;12243;42.708;23.310;2022-12-29T09:56:05;21.97;;;18.53;;
16450;SDS011;12243;42.708;23.310;2022-12-29T09:58:38;22.30;;;16.80;;
16450;SDS011;12243;42.708;23.310;2022-12-29T10:01:13;38.60;;;27.13;;
16450;SDS011;12243;42.708;23.310;2022-12-29T10:03:49;28.23;;;19.37;;
16450;SDS011;12243;42.708;23.310;2022-12-29T10:06:19;26.23;;;18.70;;
16450;SDS011;12243;42.708;23.310;2022-12-29T10:08:54;25.03;;;18.33;;
16450;SDS011;12243;42.708;23.310;2022-12-29T10:11:33;27.03;;;18.70;;
16450;SDS011;12243;42.708;23.310;2022-12-29T10:14:20;24.90;;;17.57;;
16450;SDS011;12243;42.708;23.310;2022-12-29T10:17:00;24.87;;;17.67;;
16450;SDS011;12243;42.708;23.310;2022-12-29T10:19:45;56.03;;;32.20;;
16450;SDS011;12243;42.708;23.310;2022-12-29T10:22:21;23.33;;;17.41;;
16450;SDS011;12243;42.708;23.310;2022-12-29T10:24:58;23.70;;;16.33;;
16450;SDS011;12243;42.708;23.310;2022-12-29T10:27:31;20.33;;;16.20;;
16450;SDS011;12243;42.708;23.310;2022-12-29T10:29:59;45.67;;;27.60;;
16450;SDS011;12243;42.708;23.310;2022-12-29T10:32:29;29.20;;;21.23;;
16450;SDS011;12243;42.708;23.310;2022-12-29T10:35:03;22.13;;;15.90;;
16450;SDS011;12243;42.708;23.310;2022-12-29T10:37:38;24.07;;;18.10;;
16450;SDS011;12243;42.708;23.310;2022-12-29T10:40:14;22.73;;;17.20;;
16450;SDS011;12243;42.708;23.310;2022-12-29T10:42:47;24.30;;;16.13;;
16450;SDS011;12243;42.708;23.310;2022-12-29T10:45:18;24.80;;;16.43;;
16450;SDS011;12243;42.708;23.310;2022-12-29T10:47:51;21.43;;;15.13;;
16450;SDS011;12243;42.708;23.310;2022-12-29T10:50:22;21.03;;;16.50;;
16450;SDS011;12243;42.708;23.310;2022-12-29T10:52:51;20.30;;;16.67;;
16450;SDS011;12243;42.708;23.310;2022-12-29T10:55:19;21.20;;;15.70;;
16450;SDS011;12243;42.708;23.310;2022-12-29T10:57:50;21.07;;;16.07;;
16450;SDS011;12243;42.708;23.310;2022-12-29T11:00:18;57.40;;;36.10;;
16450;SDS011;12243;42.708;23.310;2022-12-29T11:02:50;24.80;;;18.67;;
16450;SDS011;12243;42.708;23.310;2022-12-29T11:05:36;23.50;;;16.73;;
16450;SDS011;12243;42.708;23.310;2022-12-29T11:08:09;22.53;;;16.53;;
16450;SDS011;12243;42.708;23.310;2022-12-29T11:10:39;22.93;;;18.03;;
16450;SDS011;12243;42.708;23.310;2022-12-29T11:13:13;47.07;;;29.40;;
16450;SDS011;12243;42.708;23.310;2022-12-29T11:15:42;28.00;;;20.30;;
16450;SDS011;12243;42.708;23.310;2022-12-29T11:18:20;23.77;;;16.60;;
16450;SDS011;12243;42.708;23.310;2022-12-29T11:20:49;24.23;;;16.40;;
16450;SDS011;12243;42.708;23.310;2022-12-29T11:23:22;23.77;;;17.97;;
16450;SDS011;12243;42.708;23.310;2022-12-29T11:26:05;39.37;;;24.03;;
16450;SDS011;12243;42.708;23.310;2022-12-29T11:28:39;19.40;;;16.90;;
16450;SDS011;12243;42.708;23.310;2022-12-29T11:31:07;21.13;;;16.83;;
16450;SDS011;12243;42.708;23.310;2022-12-29T11:33:35;25.93;;;17.93;;
16450;SDS011;12243;42.708;23.310;2022-12-29T11:36:04;20.33;;;16.63;;
16450;SDS011;12243;42.708;23.310;2022-12-29T11:38:33;24.30;;;17.60;;
16450;SDS011;12243;42.708;23.310;2022-12-29T11:41:02;30.23;;;20.47;;
16450;SDS011;12243;42.708;23.310;2022-12-29T11:43:32;23.10;;;18.47;;
16450;SDS011;12243;42.708;23.310;2022-12-29T11:46:02;23.00;;;17.00;;
16450;SDS011;12243;42.708;23.310;2022-12-29T11:48:32;20.20;;;16.47;;
16450;SDS011;12243;42.708;23.310;2022-12-29T11:51:04;24.57;;;15.73;;
16450;SDS011;12243;42.708;23.310;2022-12-29T11:53:36;24.00;;;17.87;;
16450;SDS011;12243;42.708;23.310;2022-12-29T11:56:07;19.23;;;15.60;;
16450;SDS011;12243;42.708;23.310;2022-12-29T11:58:37;21.60;;;15.73;;
16450;SDS011;12243;42.708;23.310;2022-12-29T12:01:07;20.90;;;15.43;;
16450;SDS011;12243;42.708;23.310;2022-12-29T12:03:40;23.47;;;16.37;;
16450;SDS011;12243;42.708;23.310;2022-12-29T12:06:15;24.67;;;18.10;;
16450;SDS011;12243;42.708;23.310;2022-12-29T12:08:47;25.87;;;16.43;;
16450;SDS011;12243;42.708;23.310;2022-12-29T12:11:20;20.13;;;16.17;;
16450;SDS011;12243;42.708;23.310;2022-12-29T12:13:52;24.20;;;17.10;;
16450;SDS011;12243;42.708;23.310;2022-12-29T12:16:34;28.97;;;17.87;;
16450;SDS011;12243;42.708;23.310;2022-12-29T12:19:09;22.93;;;16.73;;
16450;SDS011;12243;42.708;23.310;2022-12-29T12:21:43;25.63;;;16.80;;
16450;SDS011;12243;42.708;23.310;2022-12-29T12:24:21;24.27;;;16.33;;
16450;SDS011;12243;42.708;23.310;2022-12-29T12:27:02;28.83;;;19.40;;
16450;SDS011;12243;42.708;23.310;2022-12-29T12:29:36;25.20;;;16.73;;
16450;SDS011;12243;42.708;23.310;2022-12-29T12:32:11;23.10;;;16.43;;
16450;SDS011;12243;42.708;23.310;2022-12-29T12:34:41;38.80;;;24.93;;
16450;SDS011;12243;42.708;23.310;2022-12-29T12:37:16;42.17;;;23.07;;
16450;SDS011;12243;42.708;23.310;2022-12-29T12:40:00;23.03;;;16.73;;
16450;SDS011;12243;42.708;23.310;2022-12-29T12:42:43;105.03;;;42.80;;
16450;SDS011;12243;42.708;23.310;2022-12-29T12:45:27;45.73;;;25.60;;
16450;SDS011;12243;42.708;23.310;2022-12-29T12:48:11;22.83;;;16.30;;
16450;SDS011;12243;42.708;23.310;2022-12-29T12:50:59;22.80;;;16.93;;
16450;SDS011;12243;42.708;23.310;2022-12-29T12:53:40;21.50;;;16.07;;
16450;SDS011;12243;42.708;23.310;2022-12-29T12:56:27;22.50;;;16.40;;
16450;SDS011;12243;42.708;23.310;2022-12-29T12:59:16;43.03;;;17.93;;
16450;SDS011;12243;42.708;23.310;2022-12-29T13:01:58;24.33;;;18.60;;
16450;SDS011;12243;42.708;23.310;2022-12-29T13:04:43;23.03;;;17.03;;
16450;SDS011;12243;42.708;23.310;2022-12-29T13:07:21;26.93;;;19.23;;
16450;SDS011;12243;42.708;23.310;2022-12-29T13:10:02;36.97;;;22.63;;
16450;SDS011;12243;42.708;23.310;2022-12-29T13:12:50;20.30;;;15.27;;
16450;SDS011;12243;42.708;23.310;2022-12-29T13:15:32;23.77;;;16.67;;
16450;SDS011;12243;42.708;23.310;2022-12-29T13:18:07;26.27;;;17.57;;
16450;SDS011;12243;42.708;23.310;2022-12-29T13:20:47;23.50;;;16.77;;
16450;SDS011;12243;42.708;23.310;2022-12-29T13:23:21;23.80;;;17.53;;
16450;SDS011;12243;42.708;23.310;2022-12-29T13:25:58;24.93;;;17.03;;
16450;SDS011;12243;42.708;23.310;2022-12-29T13:28:34;20.87;;;15.50;;
16450;SDS011;12243;42.708;23.310;2022-12-29T13:31:12;19.17;;;16.47;;
16450;SDS011;12243;42.708;23.310;2022-12-29T13:33:44;22.90;;;17.30;;
16450;SDS011;12243;42.708;23.310;2022-12-29T13:36:21;20.80;;;16.67;;
16450;SDS011;12243;42.708;23.310;2022-12-29T13:38:54;27.13;;;17.33;;
16450;SDS011;12243;42.708;23.310;2022-12-29T13:41:30;26.83;;;16.33;;
16450;SDS011;12243;42.708;23.310;2022-12-29T13:44:02;25.03;;;18.57;;
16450;SDS011;12243;42.708;23.310;2022-12-29T13:46:33;46.77;;;26.63;;
16450;SDS011;12243;42.708;23.310;2022-12-29T13:49:05;32.33;;;22.50;;
16450;SDS011;12243;42.708;23.310;2022-12-29T13:51:39;35.33;;;22.50;;
16450;SDS011;12243;42.708;23.310;2022-12-29T13:54:15;161.17;;;71.13;;
16450;SDS011;12243;42.708;23.310;2022-12-29T13:56:52;128.43;;;58.13;;
16450;SDS011;12243;42.708;23.310;2022-12-29T13:59:26;96.80;;;44.40;;
16450;SDS011;12243;42.708;23.310;2022-12-29T14:02:08;142.40;;;54.27;;
16450;SDS011;12243;42.708;23.310;2022-12-29T14:04:55;69.73;;;32.50;;
16450;SDS011;12243;42.708;23.310;2022-12-29T14:07:24;111.60;;;50.60;;
16450;SDS011;12243;42.708;23.310;2022-12-29T14:09:52;87.67;;;44.40;;
16450;SDS011;12243;42.708;23.310;2022-12-29T14:12:21;86.80;;;42.17;;
16450;SDS011;12243;42.708;23.310;2022-12-29T14:15:05;52.03;;;29.10;;
16450;SDS011;12243;42.708;23.310;2022-12-29T14:17:44;37.23;;;23.40;;
16450;SDS011;12243;42.708;23.310;2022-12-29T14:20:27;98.50;;;45.90;;
16450;SDS011;12243;42.708;23.310;2022-12-29T14:22:57;46.17;;;27.37;;
16450;SDS011;12243;42.708;23.310;2022-12-29T14:28:23;29.80;;;21.33;;
16450;SDS011;12243;42.708;23.310;2022-12-29T14:30:52;55.50;;;28.67;;
16450;SDS011;12243;42.708;23.310;2022-12-29T14:33:24;29.93;;;20.13;;
16450;SDS011;12243;42.708;23.310;2022-12-29T14:35:53;37.77;;;23.77;;
16450;SDS011;12243;42.708;23.310;2022-12-29T14:38:30;27.92;;;20.61;;
16450;SDS011;12243;42.708;23.310;2022-12-29T14:43:53;29.13;;;20.60;;
16450;SDS011;12243;42.708;23.310;2022-12-29T14:46:23;26.80;;;20.10;;
16450;SDS011;12243;42.708;23.310;2022-12-29T14:48:54;26.13;;;19.93;;
16450;SDS011;12243;42.708;23.310;2022-12-29T14:51:27;30.63;;;20.47;;
16450;SDS011;12243;42.708;23.310;2022-12-29T14:53:59;33.60;;;24.50;;